Time;durP1;ratioP1;P1;durP2;ratioP2;P2;SDS_P1;SDS_P2;PMS_P1;PMS_P2;Temp;Humidity;BMP_temperature;BMP_pressure;BME280_temperature;BME280_humidity;BME280_pressure;Samples;Min_cycle;Max_cycle;Signal;HPM_P1;HPM_P2
2022/10/25 00:00:15;;;;;;;6.32;2.78;;;13.80;99.90;;;;;;6241042;23;20062;-76
2022/10/25 00:02:40;;;;;;;8.75;4.45;;;13.90;99.90;;;;;;6240990;23;20050;-76
2022/10/25 00:05:06;;;;;;;8.98;3.28;;;13.80;99.90;;;;;;6241411;23;20007;-76
2022/10/25 00:07:32;;;;;;;9.57;3.65;;;13.90;99.90;;;;;;6241089;23;20134;-76
2022/10/25 00:09:57;;;;;;;7.53;3.13;;;14.70;99.90;;;;;;6241495;23;20088;-76
2022/10/25 00:12:23;;;;;;;8.07;4.57;;;13.90;99.90;;;;;;6241000;23;20406;-76
2022/10/25 00:14:49;;;;;;;10.80;3.67;;;14.00;99.90;;;;;;6241366;23;20007;-76
2022/10/25 00:17:14;;;;;;;6.88;3.88;;;13.90;99.90;;;;;;6240670;22;20438;-76
2022/10/25 00:19:40;;;;;;;7.55;3.45;;;13.80;99.90;;;;;;6240405;23;20012;-76
2022/10/25 00:22:05;;;;;;;10.48;3.50;;;13.70;99.90;;;;;;6240556;23;20000;-76
2022/10/25 00:24:31;;;;;;;5.35;3.80;;;15.20;99.90;;;;;;6240978;23;20006;-76
2022/10/25 00:26:56;;;;;;;5.20;3.45;;;13.80;99.90;;;;;;6239901;23;20004;-76
2022/10/25 00:29:22;;;;;;;12.35;4.53;;;13.80;99.90;;;;;;6241020;23;20026;-76
2022/10/25 00:31:47;;;;;;;10.77;4.30;;;13.80;99.90;;;;;;6240800;23;20311;-76
2022/10/25 00:34:13;;;;;;;18.38;5.65;;;13.70;99.90;;;;;;6241069;23;20398;-76
2022/10/25 00:36:38;;;;;;;10.63;4.85;;;13.80;99.90;;;;;;6240461;23;20023;-76
2022/10/25 00:39:04;;;;;;;9.73;4.20;;;14.60;99.90;;;;;;6240639;23;20009;-76
2022/10/25 00:41:32;;;;;;;10.88;4.80;;;13.80;99.90;;;;;;6240615;23;20000;-76
2022/10/25 00:44:35;;;;;;;10.95;5.30;;;13.90;99.90;;;;;;6240734;22;20000;-76
2022/10/25 00:47:05;;;;;;;9.77;4.93;;;13.80;99.90;;;;;;6240286;22;20413;-76
2022/10/25 00:49:32;;;;;;;11.45;5.15;;;13.80;99.90;;;;;;6240709;22;20075;-76
2022/10/25 00:52:04;;;;;;;11.82;6.00;;;13.90;99.90;;;;;;6240565;22;20004;-76
2022/10/25 00:54:35;;;;;;;7.53;5.72;;;13.80;99.90;;;;;;6240407;22;20027;-76
2022/10/25 00:57:08;;;;;;;9.27;6.07;;;13.80;99.90;;;;;;6240964;22;20000;-76
2022/10/25 00:59:33;;;;;;;11.00;5.50;;;13.80;99.90;;;;;;6240946;22;20008;-76
2022/10/25 01:01:59;;;;;;;12.95;5.85;;;13.80;99.90;;;;;;6240713;23;20004;-76
2022/10/25 01:04:28;;;;;;;11.93;5.20;;;13.90;99.90;;;;;;6240938;23;20016;-76
2022/10/25 01:06:53;;;;;;;10.65;5.03;;;13.80;99.90;;;;;;6240840;22;20000;-76
2022/10/25 01:09:25;;;;;;;11.35;6.13;;;13.90;99.90;;;;;;6240531;22;20422;-76
2022/10/25 01:11:51;;;;;;;9.40;5.43;;;13.90;99.90;;;;;;6241102;22;20003;-76
2022/10/25 01:14:18;;;;;;;10.65;5.68;;;14.00;99.90;;;;;;6241138;23;20000;-77
2022/10/25 01:17:11;;;;;;;11.55;6.00;;;14.00;99.90;;;;;;6240911;22;20004;-77
2022/10/25 01:19:58;;;;;;;11.55;6.30;;;14.10;99.90;;;;;;6238791;23;20338;-76
2022/10/25 01:22:35;;;;;;;11.43;5.85;;;14.10;99.90;;;;;;6240672;23;20008;-76
2022/10/25 01:25:37;;;;;;;7.90;6.13;;;14.10;99.90;;;;;;6239941;22;20003;-76
2022/10/25 01:28:20;;;;;;;13.85;5.65;;;14.10;99.90;;;;;;6241960;23;20026;-76
2022/10/25 01:31:04;;;;;;;11.00;5.78;;;14.10;99.90;;;;;;6243054;22;20004;-76
2022/10/25 01:33:34;;;;;;;10.05;6.30;;;14.20;99.90;;;;;;6242588;23;20008;-76
2022/10/25 01:36:13;;;;;;;15.38;6.18;;;15.30;99.90;;;;;;6242488;22;19996;-76
2022/10/25 01:39:18;;;;;;;17.67;6.43;;;14.10;99.90;;;;;;6241404;22;20436;-76
2022/10/25 01:42:06;;;;;;;14.80;6.68;;;14.10;99.90;;;;;;6175907;23;20036;-76
2022/10/25 01:44:54;;;;;;;12.35;5.47;;;14.10;99.90;;;;;;6176861;23;20021;-76
2022/10/25 01:47:26;;;;;;;10.55;6.15;;;14.10;99.90;;;;;;6176926;23;20017;-76
2022/10/25 01:50:00;;;;;;;9.55;5.07;;;14.10;99.90;;;;;;6176453;23;20020;-76
2022/10/25 01:52:26;;;;;;;14.32;6.82;;;14.10;99.90;;;;;;6176210;23;20015;-76
2022/10/25 01:54:52;;;;;;;11.77;5.50;;;14.10;99.90;;;;;;6177145;23;20083;-76
2022/10/25 01:57:54;;;;;;;15.20;5.18;;;14.00;99.90;;;;;;6179731;23;20005;-76
2022/10/25 02:00:22;;;;;;;15.63;5.68;;;14.00;99.90;;;;;;6179592;23;20005;-76
2022/10/25 02:03:08;;;;;;;10.65;4.57;;;14.10;99.90;;;;;;6179289;23;20112;-76
2022/10/25 02:05:54;;;;;;;15.85;5.47;;;14.10;99.90;;;;;;6178302;23;20009;-76
2022/10/25 02:08:33;;;;;;;11.95;4.78;;;14.10;99.90;;;;;;6179020;23;20005;-77
2022/10/25 02:11:14;;;;;;;10.18;5.22;;;15.40;99.90;;;;;;6179009;23;20461;-76
2022/10/25 02:14:16;;;;;;;13.38;5.43;;;14.10;99.90;;;;;;6179127;23;20028;-76
2022/10/25 02:17:00;;;;;;;5.90;3.75;;;14.20;99.90;;;;;;6238013;23;20386;-76
2022/10/25 02:19:34;;;;;;;13.48;6.00;;;14.20;99.90;;;;;;6242340;22;20045;-76
2022/10/25 02:22:01;;;;;;;13.60;5.53;;;14.10;99.90;;;;;;6241207;22;19992;-76
2022/10/25 02:24:29;;;;;;;17.25;5.80;;;14.10;99.90;;;;;;6241975;22;20000;-76
2022/10/25 02:26:57;;;;;;;17.65;7.07;;;14.10;99.90;;;;;;6241881;22;20005;-76
2022/10/25 02:29:24;;;;;;;9.98;5.38;;;14.10;99.90;;;;;;6241938;23;20150;-76
2022/10/25 02:31:50;;;;;;;13.75;5.65;;;14.00;99.90;;;;;;6241778;22;20361;-77
2022/10/25 02:34:17;;;;;;;13.63;6.93;;;14.10;99.90;;;;;;6241961;22;20007;-76
2022/10/25 02:36:47;;;;;;;13.80;5.68;;;14.10;99.90;;;;;;6241493;22;19996;-76
2022/10/25 02:39:13;;;;;;;14.05;5.75;;;14.20;99.90;;;;;;6241205;22;20035;-77
2022/10/25 02:41:38;;;;;;;16.42;6.18;;;14.10;99.90;;;;;;6241705;23;20008;-76
2022/10/25 02:44:04;;;;;;;12.85;5.93;;;14.10;99.90;;;;;;6241790;23;19999;-76
2022/10/25 02:46:30;;;;;;;19.25;5.90;;;14.20;99.90;;;;;;6241982;23;20398;-77
2022/10/25 02:48:55;;;;;;;11.30;6.55;;;14.20;99.90;;;;;;6241489;23;20640;-76
2022/10/25 02:51:21;;;;;;;15.82;7.47;;;14.20;99.90;;;;;;6241259;23;20318;-76
2022/10/25 02:53:47;;;;;;;18.15;7.03;;;14.20;99.90;;;;;;6241498;22;20072;-77
2022/10/25 02:56:19;;;;;;;18.27;7.72;;;14.10;99.90;;;;;;6241967;22;20290;-76
2022/10/25 02:58:47;;;;;;;16.50;6.88;;;14.20;99.90;;;;;;6241758;22;20305;-76
2022/10/25 03:01:13;;;;;;;17.88;7.75;;;14.10;99.90;;;;;;6241358;22;20073;-76
2022/10/25 03:03:39;;;;;;;22.50;7.50;;;14.10;99.90;;;;;;6241651;22;19996;-76
2022/10/25 03:06:06;;;;;;;12.35;8.15;;;14.10;99.90;;;;;;6241048;22;20126;-76
2022/10/25 03:08:31;;;;;;;12.57;7.40;;;14.70;99.90;;;;;;6242020;22;20352;-77
2022/10/25 03:10:58;;;;;;;16.88;7.85;;;14.10;99.90;;;;;;6241508;23;20027;-77
2022/10/25 03:13:23;;;;;;;12.10;7.35;;;14.10;99.90;;;;;;6242344;22;20001;-76
2022/10/25 03:15:49;;;;;;;12.85;8.60;;;14.10;99.90;;;;;;6242351;23;20000;-76
2022/10/25 03:18:15;;;;;;;17.23;8.50;;;14.20;99.90;;;;;;6241867;23;20011;-76
2022/10/25 03:20:41;;;;;;;18.95;8.63;;;14.20;99.90;;;;;;6241304;23;20010;-77
2022/10/25 03:23:07;;;;;;;13.63;7.78;;;14.10;99.90;;;;;;6241416;23;20000;-76
2022/10/25 03:25:32;;;;;;;20.80;7.60;;;14.20;99.90;;;;;;6241794;22;20054;-76
2022/10/25 03:28:01;;;;;;;13.25;6.38;;;14.30;99.90;;;;;;6241270;23;20008;-76
2022/10/25 03:30:28;;;;;;;12.00;8.68;;;14.20;99.90;;;;;;6241837;22;20066;-76
2022/10/25 03:32:53;;;;;;;17.48;7.20;;;14.20;99.90;;;;;;6239327;23;20444;-76
2022/10/25 03:35:19;;;;;;;10.60;6.60;;;14.30;99.90;;;;;;6240767;22;20027;-77
2022/10/25 03:37:47;;;;;;;15.32;7.55;;;14.30;99.90;;;;;;6241457;23;20298;-77
2022/10/25 03:40:13;;;;;;;22.70;8.15;;;14.30;99.90;;;;;;6241063;22;20008;-77
2022/10/25 03:42:38;;;;;;;14.60;8.52;;;14.10;99.90;;;;;;6241448;23;19992;-76
2022/10/25 03:45:04;;;;;;;23.65;8.98;;;14.20;99.90;;;;;;6265509;22;20360;-76
2022/10/25 03:47:30;;;;;;;17.92;6.85;;;14.30;99.90;;;;;;6241677;23;20007;-77
2022/10/25 03:49:55;;;;;;;19.65;7.82;;;14.20;99.90;;;;;;6240724;23;20426;-76
2022/10/25 03:52:21;;;;;;;18.05;8.55;;;14.20;99.90;;;;;;6241723;23;20005;-77
2022/10/25 03:54:46;;;;;;;16.30;8.00;;;14.30;99.90;;;;;;6241585;23;20057;-76
2022/10/25 03:57:12;;;;;;;13.93;7.10;;;14.30;99.90;;;;;;6241543;23;20373;-77
2022/10/25 03:59:37;;;;;;;17.48;8.27;;;14.20;99.90;;;;;;6241187;23;20016;-77
2022/10/25 04:02:03;;;;;;;16.23;7.03;;;14.30;99.90;;;;;;6241623;23;20402;-76
2022/10/25 04:04:28;;;;;;;15.05;7.68;;;14.30;99.90;;;;;;6240979;23;20019;-76
2022/10/25 04:06:54;;;;;;;15.20;8.10;;;14.30;99.90;;;;;;6241191;23;20001;-76
2022/10/25 04:09:20;;;;;;;13.23;8.93;;;14.30;99.90;;;;;;6241584;23;20008;-76
2022/10/25 04:11:45;;;;;;;12.52;7.30;;;14.30;99.90;;;;;;6241342;23;20031;-76
2022/10/25 04:14:11;;;;;;;13.90;7.45;;;14.40;99.90;;;;;;6240977;23;20004;-76
2022/10/25 04:16:36;;;;;;;12.00;6.88;;;14.40;99.90;;;;;;6241067;23;20071;-76
2022/10/25 04:19:02;;;;;;;16.52;7.82;;;14.40;99.90;;;;;;6240093;23;20054;-76
2022/10/25 04:21:27;;;;;;;17.67;7.25;;;14.30;99.90;;;;;;6241142;23;19998;-76
2022/10/25 04:23:53;;;;;;;12.00;7.07;;;14.30;99.90;;;;;;6240392;23;20444;-76
2022/10/25 04:26:19;;;;;;;14.07;7.55;;;14.30;99.90;;;;;;6241549;23;20000;-77
2022/10/25 04:28:52;;;;;;;13.88;6.30;;;14.30;99.90;;;;;;6240828;22;20020;-76
2022/10/25 04:31:19;;;;;;;16.92;7.43;;;14.30;99.90;;;;;;6241025;22;20046;-76
2022/10/25 04:33:52;;;;;;;11.93;6.63;;;14.30;99.90;;;;;;6240204;22;20000;-76
2022/10/25 04:36:18;;;;;;;9.13;6.03;;;14.30;99.90;;;;;;6240546;22;20011;-76
2022/10/25 04:38:48;;;;;;;15.30;6.45;;;14.40;99.90;;;;;;6240776;22;20007;-76
2022/10/25 04:41:14;;;;;;;12.95;7.05;;;14.30;99.90;;;;;;6240810;22;20006;-76
2022/10/25 04:43:39;;;;;;;13.88;6.68;;;14.30;99.90;;;;;;6240606;23;19996;-76
2022/10/25 04:46:05;;;;;;;17.00;6.40;;;14.10;99.90;;;;;;6240542;23;20066;-76
2022/10/25 04:48:31;;;;;;;13.50;6.22;;;14.20;99.90;;;;;;6240474;23;19996;-76
2022/10/25 04:50:59;;;;;;;13.05;7.10;;;16.00;99.90;;;;;;6240551;22;20012;-76
2022/10/25 04:53:25;;;;;;;12.07;6.88;;;14.20;99.90;;;;;;6239549;23;20422;-77
2022/10/25 04:56:05;;;;;;;13.93;8.05;;;14.10;99.90;;;;;;6240413;22;20005;-76
2022/10/25 04:58:32;;;;;;;14.15;8.25;;;14.10;99.90;;;;;;6241449;22;20091;-76
2022/10/25 05:01:04;;;;;;;10.68;7.70;;;14.10;99.90;;;;;;6239902;22;20094;-76
2022/10/25 05:03:30;;;;;;;15.50;7.97;;;14.10;99.90;;;;;;6242896;22;20074;-76
2022/10/25 05:06:16;;;;;;;17.13;7.53;;;14.00;99.90;;;;;;6242806;22;20538;-76
2022/10/25 05:08:44;;;;;;;10.93;7.40;;;14.10;99.90;;;;;;6243326;22;20073;-76
2022/10/25 05:11:11;;;;;;;13.77;7.57;;;14.00;99.90;;;;;;6243407;22;20333;-77
2022/10/25 05:13:38;;;;;;;17.33;7.65;;;13.90;99.90;;;;;;6243083;22;20031;-76
2022/10/25 05:16:04;;;;;;;9.02;7.05;;;14.00;99.90;;;;;;6242785;22;20007;-76
2022/10/25 05:18:31;;;;;;;14.60;6.90;;;14.00;99.90;;;;;;6243351;22;20007;-76
2022/10/25 05:20:59;;;;;;;8.30;5.97;;;14.00;99.90;;;;;;6242598;22;20008;-76
2022/10/25 05:23:26;;;;;;;12.05;5.95;;;14.00;99.90;;;;;;6243021;22;20325;-76
2022/10/25 05:26:07;;;;;;;15.57;6.68;;;14.20;99.90;;;;;;6242944;22;20086;-76
2022/10/25 05:28:33;;;;;;;9.45;5.75;;;13.80;99.90;;;;;;6242928;22;20509;-76
2022/10/25 05:31:20;;;;;;;13.73;7.28;;;13.90;99.90;;;;;;6242276;22;20019;-76
2022/10/25 05:33:49;;;;;;;10.40;5.45;;;14.10;99.90;;;;;;6242630;22;20377;-76
2022/10/25 05:36:14;;;;;;;8.88;5.53;;;14.00;99.90;;;;;;6242985;22;20058;-76
2022/10/25 05:38:41;;;;;;;8.77;4.97;;;14.00;99.90;;;;;;6242786;23;20365;-76
2022/10/25 05:41:08;;;;;;;10.55;5.85;;;14.00;99.90;;;;;;6242697;22;20034;-76
2022/10/25 05:43:34;;;;;;;7.82;5.03;;;13.80;99.90;;;;;;6242831;22;20338;-76
2022/10/25 05:46:11;;;;;;;13.27;5.47;;;14.00;99.90;;;;;;6241949;23;20007;-76
2022/10/25 05:48:37;;;;;;;11.20;4.65;;;14.10;99.90;;;;;;6242101;22;20378;-76
2022/10/25 05:51:22;;;;;;;13.65;4.60;;;14.00;99.90;;;;;;6242763;22;20015;-76
2022/10/25 05:53:50;;;;;;;13.48;4.68;;;14.00;99.90;;;;;;6242657;22;20071;-76
2022/10/25 05:56:17;;;;;;;9.63;5.13;;;14.00;99.90;;;;;;6242781;22;20088;-76
2022/10/25 05:58:43;;;;;;;8.77;4.68;;;14.00;99.90;;;;;;6242773;22;20004;-77
2022/10/25 06:01:10;;;;;;;6.80;4.75;;;14.00;99.90;;;;;;6242179;22;20019;-76
2022/10/25 06:03:37;;;;;;;10.55;4.55;;;14.00;99.90;;;;;;6242469;22;20453;-76
2022/10/25 06:06:04;;;;;;;12.77;5.82;;;14.00;99.90;;;;;;6242287;22;20012;-76
2022/10/25 06:08:31;;;;;;;17.25;5.47;;;13.90;99.90;;;;;;6242380;22;20043;-76
2022/10/25 06:11:14;;;;;;;13.23;5.13;;;13.90;99.90;;;;;;6241955;22;20016;-76
2022/10/25 06:13:40;;;;;;;10.93;5.20;;;13.90;99.90;;;;;;6241762;22;20001;-76
2022/10/25 06:16:11;;;;;;;10.65;5.15;;;13.90;99.90;;;;;;6242519;22;19992;-76
2022/10/25 06:18:39;;;;;;;10.65;6.47;;;13.80;99.90;;;;;;6242285;22;20004;-76
2022/10/25 06:21:14;;;;;;;10.88;5.82;;;13.80;99.90;;;;;;6242454;23;20145;-76
2022/10/25 06:23:40;;;;;;;9.90;5.70;;;13.80;99.90;;;;;;6242192;22;20426;-76
2022/10/25 06:26:09;;;;;;;10.98;5.70;;;14.60;99.90;;;;;;6242382;22;20007;-76
2022/10/25 06:28:35;;;;;;;9.88;5.95;;;13.80;99.90;;;;;;6241748;22;20184;-76
2022/10/25 06:31:12;;;;;;;11.93;5.65;;;13.50;99.90;;;;;;6242205;22;20004;-76
2022/10/25 06:33:38;;;;;;;11.32;4.70;;;13.80;99.90;;;;;;6242312;22;20150;-76
2022/10/25 06:36:06;;;;;;;10.68;5.65;;;13.80;99.90;;;;;;6242347;22;20063;-76
2022/10/25 06:38:32;;;;;;;12.15;6.05;;;13.80;99.90;;;;;;6242498;22;20133;-76
2022/10/25 06:41:06;;;;;;;8.48;5.20;;;13.80;99.90;;;;;;6240708;22;20008;-76
2022/10/25 06:43:33;;;;;;;9.85;5.88;;;13.80;99.90;;;;;;6241672;22;20018;-76
2022/10/25 06:46:08;;;;;;;9.77;6.63;;;13.80;99.90;;;;;;6241643;22;20000;-76
2022/10/25 06:48:33;;;;;;;11.45;5.90;;;13.80;99.90;;;;;;6242458;22;20000;-76
2022/10/25 06:51:04;;;;;;;9.15;5.35;;;13.80;99.90;;;;;;6241592;23;20440;-76
2022/10/25 06:53:30;;;;;;;14.45;5.63;;;13.80;99.90;;;;;;6241984;22;20002;-76
2022/10/25 06:56:00;;;;;;;13.75;6.55;;;13.80;99.90;;;;;;6241833;22;19992;-76
2022/10/25 06:58:27;;;;;;;13.07;5.35;;;13.70;99.90;;;;;;6241544;22;20422;-76
2022/10/25 07:00:53;;;;;;;13.90;5.45;;;13.80;99.90;;;;;;6241583;22;20015;-72
2022/10/25 07:03:19;;;;;;;9.07;5.70;;;13.80;99.90;;;;;;6241787;23;19997;-72
2022/10/25 07:05:45;;;;;;;10.15;5.88;;;13.80;99.90;;;;;;6240210;22;20075;-72
2022/10/25 07:08:10;;;;;;;14.32;7.05;;;13.90;99.90;;;;;;6240908;23;20027;-72
2022/10/25 07:10:36;;;;;;;15.57;6.43;;;13.90;99.90;;;;;;6240419;23;20183;-72
2022/10/25 07:13:02;;;;;;;15.00;5.82;;;13.90;99.90;;;;;;6240658;23;20521;-72
2022/10/25 07:15:27;;;;;;;15.05;5.45;;;13.90;99.90;;;;;;6241278;23;19992;-72
2022/10/25 07:17:54;;;;;;;10.07;5.93;;;13.90;99.90;;;;;;6240724;23;20008;-71
2022/10/25 07:20:19;;;;;;;13.30;6.93;;;14.00;99.90;;;;;;6240857;23;20058;-72
2022/10/25 07:22:45;;;;;;;12.80;6.72;;;13.90;99.90;;;;;;6241126;23;19996;-72
2022/10/25 07:25:10;;;;;;;10.05;6.05;;;14.00;99.90;;;;;;6240640;23;20062;-72
2022/10/25 07:27:36;;;;;;;15.70;6.70;;;13.90;99.90;;;;;;6240128;23;20012;-72
2022/10/25 07:30:02;;;;;;;7.88;6.10;;;13.50;99.90;;;;;;6241064;23;20162;-72
2022/10/25 07:32:27;;;;;;;9.98;6.45;;;13.70;99.90;;;;;;6241146;22;20006;-72
2022/10/25 07:34:53;;;;;;;11.98;6.72;;;13.70;99.90;;;;;;6240355;23;20027;-72
2022/10/25 07:37:18;;;;;;;12.45;6.57;;;13.60;99.90;;;;;;6241233;23;20326;-72
2022/10/25 07:39:44;;;;;;;12.68;6.50;;;13.50;99.90;;;;;;6241147;23;20000;-72
2022/10/25 07:42:09;;;;;;;11.07;6.47;;;13.60;99.90;;;;;;6240562;23;20324;-72
2022/10/25 07:44:35;;;;;;;12.32;7.30;;;13.70;99.90;;;;;;6240930;23;20004;-71
2022/10/25 07:47:00;;;;;;;10.70;7.88;;;13.70;99.90;;;;;;6240716;23;20000;-72
2022/10/25 07:49:26;;;;;;;8.55;7.25;;;14.00;99.90;;;;;;6240754;23;20000;-72
2022/10/25 07:51:51;;;;;;;19.42;8.93;;;14.00;99.90;;;;;;6240861;23;20002;-72
2022/10/25 07:54:17;;;;;;;10.30;7.97;;;14.10;99.90;;;;;;6240953;23;20650;-72
2022/10/25 07:56:42;;;;;;;11.18;6.57;;;14.20;99.90;;;;;;6240765;23;20028;-72
2022/10/25 07:59:08;;;;;;;11.15;7.78;;;14.30;99.90;;;;;;6241170;23;20000;-72
2022/10/25 08:01:33;;;;;;;18.65;8.77;;;14.40;99.90;;;;;;6241429;23;20045;-72
2022/10/25 08:03:59;;;;;;;14.63;8.10;;;14.40;99.90;;;;;;6264925;22;20074;-72
2022/10/25 08:06:25;;;;;;;15.25;8.65;;;14.50;99.90;;;;;;6241500;23;20024;-72
2022/10/25 08:08:50;;;;;;;12.48;8.20;;;14.40;99.90;;;;;;6241226;23;20095;-72
2022/10/25 08:11:16;;;;;;;13.43;9.30;;;13.10;99.90;;;;;;6240601;23;20004;-72
2022/10/25 08:13:42;;;;;;;11.25;7.72;;;14.60;99.90;;;;;;6241278;22;20195;-72
2022/10/25 08:16:07;;;;;;;13.98;8.40;;;14.60;99.90;;;;;;6241249;23;20001;-72
2022/10/25 08:18:34;;;;;;;11.20;7.10;;;14.70;99.90;;;;;;6264982;22;20046;-72
2022/10/25 08:21:00;;;;;;;13.45;9.02;;;14.80;99.90;;;;;;6240548;22;20053;-72
2022/10/25 08:23:26;;;;;;;18.00;9.13;;;14.80;99.90;;;;;;6241101;22;20007;-71
2022/10/25 08:25:52;;;;;;;16.30;9.57;;;14.90;99.90;;;;;;6240249;23;20299;-72
2022/10/25 08:28:18;;;;;;;14.57;10.55;;;15.10;99.90;;;;;;6240572;22;20111;-72
2022/10/25 08:30:44;;;;;;;15.70;10.45;;;14.90;99.90;;;;;;6240883;23;20004;-72
2022/10/25 08:33:09;;;;;;;15.52;9.95;;;14.90;99.90;;;;;;6240774;23;20075;-72
2022/10/25 08:35:35;;;;;;;21.40;11.15;;;14.90;99.90;;;;;;6241021;23;20000;-72
2022/10/25 08:38:01;;;;;;;20.02;11.70;;;17.10;99.90;;;;;;6240407;23;20004;-72
2022/10/25 08:40:39;;;;;;;16.83;10.43;;;15.10;99.90;;;;;;6240549;22;20456;-72
2022/10/25 08:43:30;;;;;;;14.57;11.23;;;15.20;99.90;;;;;;6240957;23;19996;-72
2022/10/25 08:46:03;;;;;;;15.73;11.70;;;15.30;99.90;;;;;;6240741;23;19999;-72
2022/10/25 08:48:36;;;;;;;20.92;11.82;;;15.40;99.90;;;;;;6241008;22;20062;-72
2022/10/25 08:51:13;;;;;;;17.50;11.67;;;15.20;99.90;;;;;;6240427;22;20004;-72
2022/10/25 08:53:46;;;;;;;20.23;11.65;;;15.40;99.90;;;;;;6240051;22;20422;-72
2022/10/25 08:56:15;;;;;;;16.15;12.35;;;15.40;99.90;;;;;;6240495;22;20430;-72
2022/10/25 08:58:51;;;;;;;21.60;13.25;;;15.40;99.90;;;;;;6240630;22;20008;-72
2022/10/25 09:01:23;;;;;;;19.42;13.85;;;15.40;99.90;;;;;;6240397;22;20012;-73
2022/10/25 09:03:49;;;;;;;16.45;13.45;;;15.10;99.90;;;;;;6240018;22;20008;-72
2022/10/25 09:06:38;;;;;;;23.10;13.55;;;15.30;99.90;;;;;;6240159;23;20436;-71
2022/10/25 09:09:33;;;;;;;19.95;14.05;;;15.30;99.90;;;;;;6240187;22;20000;-72
2022/10/25 09:12:29;;;;;;;14.88;11.73;;;15.50;99.90;;;;;;6232315;23;20004;-71
2022/10/25 09:15:04;;;;;;;19.55;13.35;;;15.50;99.90;;;;;;6240834;22;20007;-71
2022/10/25 09:17:43;;;;;;;16.95;13.73;;;15.10;99.90;;;;;;6240905;23;20031;-71
2022/10/25 09:20:20;;;;;;;18.48;12.45;;;15.50;99.90;;;;;;6240573;22;20114;-71
2022/10/25 09:22:48;;;;;;;20.77;13.60;;;15.70;99.90;;;;;;6240124;22;19997;-71
2022/10/25 09:25:21;;;;;;;20.90;14.45;;;15.70;99.90;;;;;;6240582;22;20327;-71
2022/10/25 09:27:58;;;;;;;18.27;13.73;;;15.80;99.90;;;;;;6240851;22;20106;-72
2022/10/25 09:30:25;;;;;;;19.17;14.98;;;15.90;99.90;;;;;;6240770;22;20009;-71
2022/10/25 09:32:59;;;;;;;27.95;15.27;;;15.80;99.90;;;;;;6240587;22;20075;-71
2022/10/25 09:35:52;;;;;;;;;;;15.80;99.90;;;;;;6241225;22;20004;-71
2022/10/25 09:38:39;;;;;;;16.40;12.98;;;15.80;99.90;;;;;;6235271;22;20000;-71
2022/10/25 09:41:18;;;;;;;18.58;13.50;;;15.70;99.90;;;;;;6240602;23;20011;-71
2022/10/25 09:43:53;;;;;;;17.80;13.30;;;15.80;99.90;;;;;;6240549;22;20000;-71
2022/10/25 09:46:26;;;;;;;20.05;14.88;;;15.80;99.90;;;;;;6240308;22;20012;-72
2022/10/25 09:48:57;;;;;;;16.02;12.10;;;15.80;99.90;;;;;;6240442;22;20418;-72
2022/10/25 09:51:39;;;;;;;18.23;14.07;;;15.90;99.90;;;;;;6241625;22;20031;-72
2022/10/25 09:54:17;;;;;;;16.15;12.15;;;15.80;99.90;;;;;;6242486;22;20382;-71
2022/10/25 09:56:42;;;;;;;15.80;13.20;;;15.80;99.90;;;;;;6242280;22;20449;-71
2022/10/25 09:59:13;;;;;;;21.20;12.98;;;15.70;99.90;;;;;;6266216;22;20000;-71
2022/10/25 10:01:40;;;;;;;16.23;13.55;;;15.70;99.90;;;;;;6242504;22;20026;-72
2022/10/25 10:04:32;;;;;;;17.20;12.60;;;15.70;99.90;;;;;;6242220;22;20103;-72
2022/10/25 10:07:03;;;;;;;18.55;12.05;;;15.70;99.90;;;;;;6241745;22;20309;-72
2022/10/25 10:09:31;;;;;;;22.60;13.85;;;15.80;99.90;;;;;;6242489;22;20005;-72
2022/10/25 10:11:58;;;;;;;17.73;13.20;;;15.80;99.90;;;;;;6242251;22;20079;-72
2022/10/25 10:14:35;;;;;;;19.27;12.85;;;15.90;99.90;;;;;;6242277;22;20008;-71
2022/10/25 10:17:02;;;;;;;20.15;13.40;;;15.90;99.90;;;;;;6241610;22;20000;-71
2022/10/25 10:19:29;;;;;;;13.80;11.93;;;16.00;99.90;;;;;;6241605;22;20012;-71
2022/10/25 10:22:15;;;;;;;15.02;11.63;;;15.90;99.90;;;;;;6239620;22;20007;-71
2022/10/25 10:24:43;;;;;;;17.88;11.68;;;16.00;99.90;;;;;;6242299;22;19996;-71
2022/10/25 10:27:31;;;;;;;14.63;13.13;;;16.00;99.90;;;;;;6241782;22;20004;-72
2022/10/25 10:30:06;;;;;;;19.10;12.43;;;16.80;99.90;;;;;;6242128;22;20023;-72
2022/10/25 10:32:38;;;;;;;21.30;12.80;;;16.00;99.90;;;;;;6242400;22;20000;-71
2022/10/25 10:35:06;;;;;;;17.35;12.63;;;16.10;99.90;;;;;;6241542;22;19993;-71
2022/10/25 10:37:32;;;;;;;18.83;12.98;;;16.10;99.90;;;;;;6242223;22;20457;-71
2022/10/25 10:40:01;;;;;;;20.13;13.15;;;16.10;99.90;;;;;;6265530;22;20012;-72
2022/10/25 10:42:31;;;;;;;16.95;12.18;;;15.80;99.90;;;;;;6242612;22;20027;-71
2022/10/25 10:45:07;;;;;;;17.02;12.65;;;17.00;99.90;;;;;;6241838;22;20011;-71
2022/10/25 10:47:49;;;;;;;13.13;11.25;;;16.40;99.90;;;;;;6242414;23;20310;-71
2022/10/25 10:50:24;;;;;;;17.63;11.10;;;16.60;99.90;;;;;;6241359;23;20334;-71
2022/10/25 10:53:02;;;;;;;15.80;10.68;;;16.70;99.90;;;;;;6241976;22;20000;-71
2022/10/25 10:55:31;;;;;;;14.52;10.60;;;16.70;99.90;;;;;;6242212;22;20061;-71
2022/10/25 10:58:10;;;;;;;13.07;11.13;;;16.70;99.90;;;;;;6240712;22;20047;-71
2022/10/25 11:00:35;;;;;;;16.10;9.43;;;16.70;99.90;;;;;;6240998;22;20008;-71
2022/10/25 11:03:01;;;;;;;16.30;10.85;;;16.60;99.90;;;;;;6241312;23;20093;-71
2022/10/25 11:05:30;;;;;;;17.48;11.20;;;16.70;99.90;;;;;;6240910;23;20007;-72
2022/10/25 11:08:05;;;;;;;15.65;10.55;;;16.70;99.90;;;;;;6240005;23;20010;-71
2022/10/25 11:10:35;;;;;;;10.95;9.43;;;16.70;99.90;;;;;;6241331;23;20004;-72
2022/10/25 11:13:14;;;;;;;11.07;9.15;;;16.80;99.90;;;;;;6241292;22;20004;-72
2022/10/25 11:15:49;;;;;;;11.38;9.48;;;16.90;99.90;;;;;;6241412;22;20000;-72
2022/10/25 11:18:18;;;;;;;16.92;9.57;;;16.80;99.90;;;;;;6241002;23;20004;-72
2022/10/25 11:21:02;;;;;;;13.93;9.95;;;16.80;99.90;;;;;;6265238;22;20008;-72
2022/10/25 11:23:35;;;;;;;14.82;9.63;;;16.70;99.90;;;;;;6241053;22;20075;-72
2022/10/25 11:26:09;;;;;;;15.68;11.00;;;16.40;99.90;;;;;;6241623;22;20083;-72
2022/10/25 11:28:47;;;;;;;15.05;9.90;;;16.50;99.90;;;;;;6241187;22;20199;-71
2022/10/25 11:31:42;;;;;;;11.27;8.95;;;16.30;99.90;;;;;;6241339;23;20069;-71
2022/10/25 11:34:26;;;;;;;11.38;9.05;;;16.40;99.90;;;;;;6240514;23;20024;-72
2022/10/25 11:37:24;;;;;;;15.63;9.38;;;16.40;99.90;;;;;;6241098;23;20032;-71
2022/10/25 11:40:12;;;;;;;15.80;9.35;;;16.40;99.90;;;;;;6240290;23;20012;-72
2022/10/25 11:42:42;;;;;;;15.20;8.00;;;16.20;99.90;;;;;;6241007;22;20003;-71
2022/10/25 11:45:40;;;;;;;10.77;7.47;;;16.30;99.90;;;;;;6241275;22;20007;-72
2022/10/25 11:48:34;;;;;;;11.57;7.25;;;16.20;99.90;;;;;;6240711;22;20087;-71
2022/10/25 11:51:12;;;;;;;14.82;7.88;;;16.40;99.90;;;;;;6240911;22;20000;-71
2022/10/25 11:53:46;;;;;;;13.85;7.32;;;16.50;99.90;;;;;;6240889;22;20429;-71
2022/10/25 11:56:19;;;;;;;11.35;6.40;;;16.50;99.90;;;;;;6241030;23;20004;-72
2022/10/25 11:59:24;;;;;;;13.23;7.93;;;16.30;99.90;;;;;;6241056;23;20003;-71
2022/10/25 12:02:19;;;;;;;13.57;7.35;;;16.30;99.90;;;;;;6240800;22;20079;-72
2022/10/25 12:04:52;;;;;;;13.10;8.52;;;16.10;99.90;;;;;;6240991;22;20049;-71
2022/10/25 12:07:25;;;;;;;12.88;8.70;;;16.00;99.90;;;;;;6241281;22;20004;-71
2022/10/25 12:10:00;;;;;;;11.07;8.02;;;16.10;99.90;;;;;;6241157;22;20011;-73
2022/10/25 12:12:54;;;;;;;13.48;8.18;;;15.90;99.90;;;;;;6241059;23;20330;-71
2022/10/25 12:15:26;;;;;;;;;;;16.00;99.90;;;;;;6232961;23;20000;-72
2022/10/25 12:17:52;;;;;;;8.65;7.40;;;16.00;99.90;;;;;;6239201;22;19903;-71
2022/10/25 12:20:26;;;;;;;8.88;7.32;;;16.00;99.90;;;;;;6240407;23;20004;-71
2022/10/25 12:22:55;;;;;;;11.25;6.93;;;16.00;99.90;;;;;;6240708;23;20038;-71
2022/10/25 12:25:29;;;;;;;14.32;7.82;;;16.00;99.90;;;;;;6241041;22;20075;-71
2022/10/25 12:28:05;;;;;;;12.30;6.65;;;16.10;99.90;;;;;;6240454;23;20091;-72
2022/10/25 12:30:33;;;;;;;10.80;7.55;;;16.10;99.90;;;;;;6240511;22;20026;-71
2022/10/25 12:33:06;;;;;;;10.73;7.05;;;16.90;99.90;;;;;;6240193;22;20080;-71
2022/10/25 12:35:38;;;;;;;12.77;6.88;;;16.10;99.90;;;;;;6240611;22;20082;-72
2022/10/25 12:38:11;;;;;;;13.05;7.47;;;16.10;99.90;;;;;;6240691;22;20023;-72
2022/10/25 12:40:41;;;;;;;9.23;7.65;;;16.10;99.90;;;;;;6239978;22;20004;-71
2022/10/25 12:43:24;;;;;;;12.10;7.65;;;16.10;99.90;;;;;;6240464;22;20008;-71
2022/10/25 12:46:14;;;;;;;11.20;7.72;;;16.10;99.90;;;;;;6240078;22;20010;-71
2022/10/25 12:48:42;;;;;;;10.23;7.43;;;16.10;99.90;;;;;;6240335;23;20248;-71
2022/10/25 12:51:35;;;;;;;12.90;7.13;;;16.20;99.90;;;;;;6240897;23;20326;-71
2022/10/25 12:54:25;;;;;;;11.00;6.05;;;16.30;99.90;;;;;;6240201;22;20019;-71
2022/10/25 12:57:06;;;;;;;10.35;6.00;;;16.50;99.90;;;;;;6240228;23;20054;-72